Time;durP1;ratioP1;P1;durP2;ratioP2;P2;SDS_P1;SDS_P2;PMS_P1;PMS_P2;Temp;Humidity;BMP_temperature;BMP_pressure;BME280_temperature;BME280_humidity;BME280_pressure;Samples;Min_cycle;Max_cycle;Signal;HPM_P1;HPM_P2
2024/02/12 00:00:27;;;;;;;2.20;1.43;;;9.20;98.00;;;;;;5053929;28;20456;-67
2024/02/12 00:02:55;;;;;;;1.53;1.40;;;9.20;98.00;;;;;;5069761;28;20515;-67
2024/02/12 00:05:23;;;;;;;2.43;1.30;;;9.20;98.00;;;;;;5054373;28;20461;-67
2024/02/12 00:07:50;;;;;;;1.90;1.40;;;9.10;98.00;;;;;;5054404;28;20542;-67
2024/02/12 00:10:18;;;;;;;1.70;1.37;;;9.10;98.00;;;;;;5069328;28;21027;-67
2024/02/12 00:12:46;;;;;;;1.93;1.33;;;9.20;98.00;;;;;;5053923;28;20468;-67
2024/02/12 00:15:17;;;;;;;1.57;1.30;;;9.20;98.00;;;;;;5053893;28;20519;-67
2024/02/12 00:17:44;;;;;;;1.60;1.40;;;9.10;98.00;;;;;;5053860;28;21028;-67
2024/02/12 00:20:12;;;;;;;1.90;1.30;;;9.00;98.00;;;;;;5054455;28;20455;-67
2024/02/12 00:22:39;;;;;;;1.70;1.37;;;9.00;98.00;;;;;;5054195;28;20488;-67
2024/02/12 00:25:07;;;;;;;1.57;1.30;;;9.10;98.00;;;;;;5054118;28;20460;-67
2024/02/12 00:27:34;;;;;;;1.57;1.30;;;9.10;98.00;;;;;;5053709;28;20456;-67
2024/02/12 00:30:02;;;;;;;2.23;1.40;;;9.10;98.00;;;;;;5053755;28;20453;-67
2024/02/12 00:32:31;;;;;;;1.90;1.30;;;9.00;98.00;;;;;;5054012;28;20940;-67
2024/02/12 00:34:58;;;;;;;2.07;1.27;;;9.00;98.00;;;;;;5053401;28;20461;-69
2024/02/12 00:37:25;;;;;;;1.47;1.33;;;9.00;98.00;;;;;;5053544;28;20849;-69
2024/02/12 00:39:54;;;;;;;1.80;1.30;;;9.10;98.00;;;;;;5053784;28;21052;-69
2024/02/12 00:42:23;;;;;;;2.13;1.20;;;9.10;98.00;;;;;;5053625;28;20969;-69
2024/02/12 00:44:51;;;;;;;1.93;1.27;;;9.10;98.00;;;;;;5068222;28;20853;-69
2024/02/12 00:47:18;;;;;;;1.43;1.20;;;9.10;98.00;;;;;;5035616;28;20817;-70
2024/02/12 00:49:48;;;;;;;1.63;1.20;;;9.10;98.00;;;;;;5053349;28;20954;-69
2024/02/12 00:52:15;;;;;;;1.30;1.20;;;9.10;98.00;;;;;;5052767;28;20532;-69
2024/02/12 00:54:42;;;;;;;1.30;1.20;;;9.00;98.00;;;;;;5053389;28;20864;-69
2024/02/12 00:57:10;;;;;;;2.33;1.50;;;8.90;98.00;;;;;;5053621;28;20485;-70
2024/02/12 00:59:40;;;;;;;1.30;1.20;;;8.90;98.00;;;;;;5053074;28;20462;-69
2024/02/12 01:02:08;;;;;;;1.80;1.30;;;8.90;98.00;;;;;;5053281;28;20537;-69
2024/02/12 01:04:36;;;;;;;1.40;1.30;;;8.80;98.00;;;;;;5052497;28;20452;-69
2024/02/12 01:07:05;;;;;;;1.40;1.27;;;8.90;98.00;;;;;;5053077;28;20993;-69
2024/02/12 01:09:32;;;;;;;1.90;1.30;;;8.80;98.00;;;;;;5052981;28;20448;-69
2024/02/12 01:11:59;;;;;;;2.13;1.30;;;8.90;98.00;;;;;;5052972;28;20466;-69
2024/02/12 01:14:28;;;;;;;2.30;1.50;;;8.90;98.00;;;;;;5068512;28;20448;-69
2024/02/12 01:16:56;;;;;;;1.30;1.20;;;8.90;98.00;;;;;;5064668;28;21001;-67
2024/02/12 01:19:24;;;;;;;2.60;1.40;;;8.90;98.00;;;;;;5073006;28;20519;-67
2024/02/12 01:21:51;;;;;;;1.63;1.20;;;8.90;98.00;;;;;;5072868;28;20521;-67
2024/02/12 01:24:23;;;;;;;2.90;1.40;;;8.90;98.00;;;;;;5072833;28;20486;-67
2024/02/12 01:26:50;;;;;;;1.40;1.40;;;8.90;98.00;;;;;;5072843;28;20457;-67
2024/02/12 01:29:18;;;;;;;1.40;1.30;;;9.00;98.00;;;;;;5072721;28;20849;-67
2024/02/12 01:31:45;;;;;;;2.17;1.20;;;8.90;98.00;;;;;;5072793;28;20491;-67
2024/02/12 01:34:13;;;;;;;2.57;1.50;;;8.90;98.00;;;;;;5072861;28;20460;-67
2024/02/12 01:36:41;;;;;;;1.70;1.40;;;8.90;98.00;;;;;;5072609;28;20483;-67
2024/02/12 01:39:09;;;;;;;1.97;1.30;;;8.80;98.00;;;;;;5055021;28;20452;-67
2024/02/12 01:41:37;;;;;;;2.63;1.60;;;8.80;98.00;;;;;;5072710;28;20950;-67
2024/02/12 01:44:06;;;;;;;2.23;1.37;;;8.90;98.00;;;;;;5072616;28;20545;-67
2024/02/12 01:46:33;;;;;;;1.67;1.30;;;8.80;98.00;;;;;;5071993;28;20790;-67
2024/02/12 01:49:01;;;;;;;1.47;1.23;;;8.80;98.00;;;;;;5072491;28;20560;-67
2024/02/12 01:51:28;;;;;;;2.23;1.30;;;8.80;98.00;;;;;;5072642;28;20477;-67
2024/02/12 01:53:59;;;;;;;1.30;1.30;;;8.80;98.00;;;;;;5072372;28;20456;-67
2024/02/12 01:56:30;;;;;;;1.80;1.17;;;8.90;98.00;;;;;;5055120;28;20571;-67
2024/02/12 01:59:01;;;;;;;1.87;1.23;;;8.90;98.00;;;;;;5072227;28;20460;-67
2024/02/12 02:01:29;;;;;;;1.90;1.50;;;8.90;98.00;;;;;;5072256;28;20448;-67
2024/02/12 02:03:56;;;;;;;2.50;1.40;;;8.90;98.00;;;;;;5036297;28;20557;-67
2024/02/12 02:06:26;;;;;;;1.73;1.33;;;8.80;98.00;;;;;;5072740;28;20464;-66
2024/02/12 02:08:53;;;;;;;1.50;1.30;;;8.80;98.00;;;;;;5072457;28;20452;-66
2024/02/12 02:11:26;;;;;;;2.20;1.33;;;8.80;98.00;;;;;;5071896;28;20452;-67
2024/02/12 02:13:54;;;;;;;1.83;1.17;;;8.80;98.00;;;;;;5071960;28;20511;-67
2024/02/12 02:16:22;;;;;;;3.63;1.50;;;8.80;98.00;;;;;;5071882;28;20488;-67
2024/02/12 02:18:52;;;;;;;1.40;1.20;;;8.90;98.00;;;;;;5071614;28;20453;-67
2024/02/12 02:21:21;;;;;;;1.40;1.20;;;8.90;98.00;;;;;;5071867;28;20503;-67
2024/02/12 02:23:48;;;;;;;1.97;1.20;;;8.90;98.00;;;;;;5071754;28;20456;-67
2024/02/12 02:26:16;;;;;;;1.60;1.20;;;8.90;98.00;;;;;;5071115;28;20820;-67
2024/02/12 02:28:43;;;;;;;3.23;1.30;;;9.00;98.00;;;;;;5070590;28;20456;-67
2024/02/12 02:31:11;;;;;;;1.30;1.30;;;9.00;98.00;;;;;;5071590;28;21007;-67
2024/02/12 02:33:38;;;;;;;2.07;1.30;;;9.00;98.00;;;;;;5071675;28;20460;-67
2024/02/12 02:36:06;;;;;;;1.80;1.30;;;9.10;98.00;;;;;;5053991;28;20460;-67
2024/02/12 02:38:34;;;;;;;1.50;1.30;;;8.90;98.00;;;;;;5071677;28;20447;-67
2024/02/12 02:41:01;;;;;;;1.20;1.20;;;8.90;98.00;;;;;;5071776;28;20537;-67
2024/02/12 02:43:31;;;;;;;2.17;1.30;;;8.90;98.00;;;;;;5071256;28;20489;-67
2024/02/12 02:45:59;;;;;;;2.17;1.40;;;8.90;98.00;;;;;;5071125;28;20958;-67
2024/02/12 02:48:28;;;;;;;1.73;1.30;;;8.90;98.00;;;;;;5071642;28;20578;-66
2024/02/12 02:50:55;;;;;;;1.20;1.10;;;8.80;98.00;;;;;;5071401;28;20509;-69
2024/02/12 02:53:23;;;;;;;1.87;1.43;;;8.80;98.00;;;;;;5071173;28;20460;-69
2024/02/12 02:55:51;;;;;;;1.57;1.30;;;8.80;98.00;;;;;;5071531;28;20451;-69
2024/02/12 02:58:20;;;;;;;1.47;1.27;;;8.80;98.00;;;;;;5071504;28;20483;-69
2024/02/12 03:00:48;;;;;;;1.20;1.10;;;8.80;98.00;;;;;;5071268;28;20445;-69
2024/02/12 03:03:16;;;;;;;2.43;1.33;;;8.80;98.00;;;;;;5071767;28;20556;-69
2024/02/12 03:05:43;;;;;;;1.40;1.20;;;8.70;98.00;;;;;;5071277;28;20456;-69
2024/02/12 03:08:11;;;;;;;1.40;1.30;;;8.70;98.00;;;;;;5053951;28;20849;-69
2024/02/12 03:10:38;;;;;;;2.00;1.30;;;8.70;98.00;;;;;;5053680;28;20482;-69
2024/02/12 03:13:05;;;;;;;1.50;1.20;;;8.80;98.00;;;;;;5053586;28;20561;-70
2024/02/12 03:15:35;;;;;;;1.63;1.27;;;8.70;98.00;;;;;;5074668;28;20456;-69
2024/02/12 03:18:05;;;;;;;2.30;1.30;;;8.70;98.00;;;;;;5075338;28;21011;-69
2024/02/12 03:20:32;;;;;;;2.33;1.30;;;8.70;98.00;;;;;;5075259;28;20489;-69
2024/02/12 03:22:59;;;;;;;2.67;1.33;;;8.70;98.00;;;;;;5075074;28;20455;-69
2024/02/12 03:25:27;;;;;;;1.77;1.30;;;8.60;98.00;;;;;;5074808;28;20451;-69
2024/02/12 03:27:54;;;;;;;1.50;1.37;;;8.70;98.00;;;;;;5075214;28;20452;-69
2024/02/12 03:30:24;;;;;;;1.30;1.10;;;8.70;98.00;;;;;;5075462;28;20456;-69
2024/02/12 03:32:51;;;;;;;1.77;1.30;;;8.60;98.00;;;;;;5075095;28;20456;-69
2024/02/12 03:35:47;;;;;;;1.70;1.30;;;8.70;98.00;;;;;;5074811;28;20469;-69
2024/02/12 03:38:14;;;;;;;1.40;1.30;;;8.60;98.00;;;;;;5074452;28;20578;-69
2024/02/12 03:40:42;;;;;;;4.70;1.40;;;8.60;98.00;;;;;;5074771;28;20455;-69
2024/02/12 03:43:10;;;;;;;2.63;1.70;;;8.60;98.00;;;;;;5057265;28;20452;-69
2024/02/12 03:45:38;;;;;;;1.40;1.20;;;8.60;98.00;;;;;;5074724;28;20474;-69
2024/02/12 03:59:50;;;;;;;1.83;1.30;;;8.70;98.00;;;;;;5074866;28;20523;-69
2024/02/12 04:01:54;;;;;;;1.30;1.20;;;8.50;98.00;;;;;;5059474;28;20436;-69
2024/02/12 04:04:21;;;;;;;2.03;1.20;;;8.50;98.00;;;;;;5074317;28;20452;-69
2024/02/12 04:06:50;;;;;;;3.10;1.30;;;8.50;98.00;;;;;;5074434;28;20467;-70
2024/02/12 04:09:17;;;;;;;4.03;1.30;;;8.50;98.00;;;;;;5074344;28;20456;-69
2024/02/12 04:11:45;;;;;;;1.47;1.30;;;8.40;98.00;;;;;;5056802;28;20854;-69
2024/02/12 04:14:12;;;;;;;7.03;1.40;;;8.50;98.00;;;;;;5074598;28;20787;-69
2024/02/12 04:16:41;;;;;;;1.50;1.30;;;8.40;98.00;;;;;;5073928;28;20980;-69
2024/02/12 04:19:10;;;;;;;1.73;1.20;;;8.40;98.00;;;;;;5073851;28;20490;-69
2024/02/12 04:21:37;;;;;;;1.30;1.20;;;8.40;98.00;;;;;;5056517;28;20460;-69
2024/02/12 04:24:06;;;;;;;2.47;1.60;;;8.40;98.00;;;;;;5074055;28;20461;-69
2024/02/12 04:26:37;;;;;;;2.43;1.50;;;8.40;98.00;;;;;;5072305;28;20455;-69
2024/02/12 04:29:05;;;;;;;1.47;1.20;;;8.40;98.00;;;;;;5073686;28;20458;-69
2024/02/12 04:31:35;;;;;;;1.40;1.30;;;8.40;98.00;;;;;;5073639;28;20451;-69
2024/02/12 04:34:03;;;;;;;1.40;1.33;;;8.30;98.00;;;;;;5074045;28;20464;-69
2024/02/12 04:36:31;;;;;;;1.20;1.10;;;8.40;98.00;;;;;;5073598;28;20456;-69
2024/02/12 04:38:58;;;;;;;1.50;1.23;;;8.30;98.00;;;;;;5073829;28;21197;-69
2024/02/12 04:41:27;;;;;;;1.60;1.20;;;8.30;98.00;;;;;;5056130;28;20457;-69
2024/02/12 04:43:55;;;;;;;2.87;1.57;;;8.40;98.00;;;;;;5073807;28;20447;-69
2024/02/12 04:46:23;;;;;;;2.23;1.47;;;8.30;98.00;;;;;;5055847;28;20869;-69
2024/02/12 04:48:51;;;;;;;1.20;1.10;;;8.30;98.00;;;;;;5073486;28;20462;-69
2024/02/12 04:51:18;;;;;;;1.40;1.30;;;8.40;98.00;;;;;;5073441;28;20457;-69
2024/02/12 04:53:45;;;;;;;1.67;1.30;;;8.30;98.00;;;;;;5055740;28;20456;-69
2024/02/12 04:56:13;;;;;;;2.37;1.40;;;8.30;98.00;;;;;;5055623;28;20621;-69
2024/02/12 04:58:41;;;;;;;4.30;1.40;;;8.30;98.00;;;;;;5073257;28;20491;-69
2024/02/12 05:01:08;;;;;;;1.47;1.20;;;8.30;98.00;;;;;;5072950;28;20839;-69
2024/02/12 05:03:36;;;;;;;1.80;1.30;;;8.40;98.00;;;;;;5073354;28;20828;-69
2024/02/12 05:06:04;;;;;;;1.40;1.20;;;8.40;98.00;;;;;;5054920;28;20539;-69
2024/02/12 05:08:31;;;;;;;1.50;1.30;;;8.40;98.00;;;;;;5073181;28;20999;-69
2024/02/12 05:10:58;;;;;;;1.70;1.30;;;8.40;98.00;;;;;;5072848;28;20810;-69
2024/02/12 05:13:25;;;;;;;9.10;1.50;;;8.50;98.00;;;;;;5073202;28;20449;-69
2024/02/12 05:16:02;;;;;;;1.30;1.20;;;8.40;98.00;;;;;;5055014;28;20452;-69
2024/02/12 05:23:59;;;;;;;1.90;1.30;;;8.30;98.00;;;;;;5072790;28;20451;-69
2024/02/12 05:26:26;;;;;;;3.13;1.50;;;8.30;98.00;;;;;;5072863;28;20443;-69
2024/02/12 05:28:53;;;;;;;2.10;1.40;;;8.30;98.00;;;;;;5072708;28;20459;-69
2024/02/12 05:31:22;;;;;;;1.53;1.30;;;8.30;98.00;;;;;;5072687;28;20548;-69
2024/02/12 05:33:50;;;;;;;3.80;1.40;;;8.30;98.00;;;;;;5072541;28;20452;-69
2024/02/12 05:36:20;;;;;;;1.70;1.50;;;8.30;98.00;;;;;;5072153;28;20695;-70
2024/02/12 05:38:49;;;;;;;2.47;1.30;;;8.30;98.00;;;;;;5055209;28;20508;-69
2024/02/12 05:41:16;;;;;;;1.60;1.50;;;8.30;98.00;;;;;;5072740;28;20570;-69
2024/02/12 05:43:43;;;;;;;3.10;1.50;;;8.40;98.00;;;;;;5072574;28;20456;-69
2024/02/12 05:46:10;;;;;;;1.80;1.40;;;8.40;98.00;;;;;;5072825;28;20459;-69
2024/02/12 05:48:40;;;;;;;1.90;1.60;;;8.50;98.00;;;;;;5072825;28;20842;-69
2024/02/12 05:51:09;;;;;;;2.30;1.70;;;8.30;98.00;;;;;;5072721;28;20479;-69
2024/02/12 05:53:37;;;;;;;2.37;1.60;;;8.30;98.00;;;;;;5072713;28;20817;-69
2024/02/12 05:56:04;;;;;;;2.10;1.57;;;8.30;98.00;;;;;;5072589;28;20449;-69
2024/02/12 05:58:31;;;;;;;2.33;1.50;;;8.20;98.00;;;;;;5071938;28;20495;-69
2024/02/12 06:00:58;;;;;;;1.87;1.60;;;8.20;98.00;;;;;;5053818;28;20464;-69
2024/02/12 06:03:26;;;;;;;1.80;1.47;;;8.20;98.00;;;;;;5071823;28;20446;-69
2024/02/12 06:05:54;;;;;;;2.23;1.57;;;8.30;98.00;;;;;;5071587;28;20452;-69
2024/02/12 06:08:22;;;;;;;1.83;1.50;;;8.30;98.00;;;;;;5071675;28;20464;-69
2024/02/12 06:10:49;;;;;;;2.50;1.80;;;8.30;98.00;;;;;;5071215;28;20531;-69
2024/02/12 06:13:17;;;;;;;2.30;1.57;;;8.30;98.00;;;;;;5071936;28;20833;-69
2024/02/12 06:15:45;;;;;;;3.07;1.80;;;8.30;98.00;;;;;;5072006;28;20441;-70
2024/02/12 06:18:12;;;;;;;2.70;1.67;;;8.30;98.00;;;;;;5072031;28;20484;-69
2024/02/12 06:20:41;;;;;;;3.93;1.90;;;8.30;98.00;;;;;;5071988;28;20452;-69
2024/02/12 06:23:09;;;;;;;2.27;1.60;;;8.30;98.00;;;;;;5072025;28;20452;-69
2024/02/12 06:25:36;;;;;;;4.20;2.00;;;8.30;98.00;;;;;;5072091;28;20451;-69
2024/02/12 06:28:04;;;;;;;3.40;2.17;;;8.30;98.00;;;;;;5071787;28;20842;-69
2024/02/12 06:30:32;;;;;;;2.33;1.70;;;8.30;98.00;;;;;;5071767;28;20459;-69
2024/02/12 06:32:59;;;;;;;3.90;2.07;;;8.30;98.00;;;;;;5070500;28;20453;-69
2024/02/12 06:35:26;;;;;;;2.60;1.93;;;8.30;98.00;;;;;;5071692;28;20456;-69
2024/02/12 06:37:53;;;;;;;4.63;2.13;;;8.30;98.00;;;;;;5071851;28;20523;-69
2024/02/12 06:40:24;;;;;;;3.30;2.20;;;8.30;98.00;;;;;;5071850;28;20459;-69
2024/02/12 06:42:51;;;;;;;3.70;1.80;;;8.20;98.00;;;;;;5071892;28;20482;-69
2024/02/12 06:45:18;;;;;;;4.80;1.70;;;8.20;98.00;;;;;;5071664;28;20460;-69
2024/02/12 06:47:48;;;;;;;5.67;2.00;;;8.20;98.00;;;;;;5052945;28;20460;-68
2024/02/12 06:50:15;;;;;;;2.57;1.80;;;8.10;98.00;;;;;;5070612;28;20803;-69
2024/02/12 06:52:42;;;;;;;4.40;1.90;;;8.20;98.00;;;;;;5071439;28;20459;-69
2024/02/12 06:55:11;;;;;;;2.80;1.87;;;8.20;98.00;;;;;;5071777;28;20448;-69
2024/02/12 06:57:39;;;;;;;3.23;2.10;;;8.20;98.00;;;;;;5071589;28;20456;-69
2024/02/12 07:00:08;;;;;;;2.10;1.60;;;8.20;98.00;;;;;;5071812;28;20514;-64
2024/02/12 07:02:35;;;;;;;4.17;2.03;;;8.10;98.00;;;;;;5071928;28;20456;-64
2024/02/12 07:05:02;;;;;;;2.70;1.87;;;8.20;98.00;;;;;;5071557;28;20542;-65
2024/02/12 07:07:30;;;;;;;2.37;1.87;;;8.20;98.00;;;;;;5071259;28;20453;-65
2024/02/12 07:09:58;;;;;;;3.03;1.80;;;8.20;98.00;;;;;;5071007;28;20445;-65
2024/02/12 07:12:25;;;;;;;4.20;2.07;;;8.20;98.00;;;;;;5053767;28;20881;-64
2024/02/12 07:14:55;;;;;;;3.67;2.20;;;8.20;98.00;;;;;;5071677;28;20479;-64
2024/02/12 07:17:22;;;;;;;2.80;1.83;;;8.30;98.00;;;;;;5071597;28;20938;-64
2024/02/12 07:19:50;;;;;;;2.93;2.00;;;8.30;98.00;;;;;;5071334;28;20480;-64
2024/02/12 07:22:20;;;;;;;2.73;2.00;;;8.30;98.00;;;;;;5071603;28;20505;-65
2024/02/12 07:24:49;;;;;;;4.03;2.10;;;8.30;98.00;;;;;;5071360;28;20839;-65
2024/02/12 07:27:17;;;;;;;3.87;2.27;;;8.20;98.00;;;;;;5071677;28;20548;-64
2024/02/12 07:29:44;;;;;;;3.10;2.00;;;8.30;98.00;;;;;;5053864;28;20499;-65
2024/02/12 07:32:15;;;;;;;2.57;1.80;;;8.30;98.00;;;;;;5053824;28;20474;-64
2024/02/12 07:34:44;;;;;;;2.10;1.80;;;8.20;98.00;;;;;;5071313;28;20463;-65
2024/02/12 07:37:11;;;;;;;3.10;1.97;;;8.20;98.00;;;;;;5071497;28;20464;-65
2024/02/12 07:39:39;;;;;;;2.77;2.07;;;8.30;98.00;;;;;;5071398;28;20546;-65
2024/02/12 07:42:08;;;;;;;5.47;2.00;;;8.30;98.00;;;;;;5071595;28;20689;-65
2024/02/12 07:44:35;;;;;;;2.70;1.60;;;8.30;98.00;;;;;;5071382;28;20802;-65
2024/02/12 07:47:05;;;;;;;3.60;2.20;;;8.40;98.00;;;;;;5071460;28;20484;-65
2024/02/12 07:49:34;;;;;;;3.80;2.00;;;8.50;98.00;;;;;;5071332;28;20463;-65
2024/02/12 07:52:01;;;;;;;3.70;2.07;;;8.40;98.00;;;;;;5070969;28;20540;-65
2024/02/12 07:54:29;;;;;;;3.90;2.17;;;8.40;98.00;;;;;;5070667;28;20829;-65
2024/02/12 07:56:57;;;;;;;3.47;2.00;;;8.30;98.00;;;;;;5071281;28;20484;-65
2024/02/12 07:59:25;;;;;;;2.77;1.70;;;8.50;98.00;;;;;;5071028;28;20484;-65
2024/02/12 08:01:52;;;;;;;2.57;1.77;;;8.40;98.00;;;;;;5074592;28;20870;-65
2024/02/12 08:04:23;;;;;;;2.27;1.77;;;8.50;98.00;;;;;;5056563;28;20505;-65
2024/02/12 08:06:51;;;;;;;2.40;1.67;;;8.40;98.00;;;;;;5074261;28;20449;-62
2024/02/12 08:09:18;;;;;;;3.50;1.80;;;8.40;98.00;;;;;;5053480;28;20441;-65
2024/02/12 08:11:46;;;;;;;2.17;1.60;;;8.40;98.00;;;;;;5055458;28;20447;-64
2024/02/12 08:14:14;;;;;;;2.10;1.70;;;8.40;98.00;;;;;;5074208;28;20449;-65
2024/02/12 08:16:44;;;;;;;3.20;2.00;;;8.40;98.00;;;;;;5074455;28;20854;-65
2024/02/12 08:19:11;;;;;;;2.53;1.87;;;8.30;98.00;;;;;;5074320;28;20487;-65
2024/02/12 08:21:38;;;;;;;3.10;1.90;;;8.40;98.00;;;;;;5074326;28;20873;-65
2024/02/12 08:24:07;;;;;;;2.37;1.77;;;8.50;98.00;;;;;;5074061;28;20448;-65
2024/02/12 08:26:34;;;;;;;4.10;1.80;;;8.60;98.00;;;;;;5074052;28;20457;-65
2024/02/12 08:29:02;;;;;;;2.70;1.70;;;8.50;98.00;;;;;;5074078;28;20454;-65
2024/02/12 08:31:30;;;;;;;1.80;1.43;;;8.60;98.00;;;;;;5074236;28;20497;-64
2024/02/12 08:33:59;;;;;;;1.97;1.67;;;8.70;98.00;;;;;;5073909;28;20574;-65
2024/02/12 08:36:27;;;;;;;4.00;1.70;;;8.70;98.00;;;;;;5056334;28;20463;-65
2024/02/12 08:38:54;;;;;;;2.73;1.80;;;8.70;98.00;;;;;;5073821;28;20486;-65
2024/02/12 08:41:24;;;;;;;2.03;1.80;;;8.70;98.00;;;;;;5073852;28;20988;-65
2024/02/12 08:43:51;;;;;;;2.27;1.57;;;8.80;98.00;;;;;;5074018;28;20490;-65
2024/02/12 08:46:19;;;;;;;2.87;1.77;;;8.80;98.00;;;;;;5073761;28;20449;-64
2024/02/12 08:48:46;;;;;;;2.03;1.70;;;8.80;98.00;;;;;;5073777;28;20525;-64
2024/02/12 08:51:15;;;;;;;2.30;1.77;;;8.80;98.00;;;;;;5073834;28;20477;-64
2024/02/12 08:53:43;;;;;;;2.07;1.77;;;8.80;98.00;;;;;;5073316;28;20544;-65
2024/02/12 08:56:14;;;;;;;3.43;1.73;;;8.80;98.00;;;;;;5073602;28;20457;-64
2024/02/12 08:58:46;;;;;;;2.93;1.90;;;8.70;98.00;;;;;;5073551;28;20480;-64
2024/02/12 09:01:17;;;;;;;2.03;1.77;;;8.70;98.00;;;;;;5073557;28;20978;-65
2024/02/12 09:03:45;;;;;;;2.37;1.60;;;8.70;98.00;;;;;;5073700;28;20798;-65
2024/02/12 09:06:14;;;;;;;2.97;1.50;;;8.80;98.00;;;;;;5073590;28;20462;-65
2024/02/12 09:08:42;;;;;;;4.90;1.63;;;8.80;98.00;;;;;;5073619;28;20478;-64
2024/02/12 09:11:09;;;;;;;2.10;1.67;;;8.90;98.00;;;;;;5073208;28;20459;-65
2024/02/12 09:13:37;;;;;;;2.37;1.77;;;8.90;98.00;;;;;;5072781;28;20460;-64
2024/02/12 09:16:08;;;;;;;2.27;1.67;;;8.90;98.00;;;;;;5073480;28;20965;-64
2024/02/12 09:18:36;;;;;;;1.87;1.60;;;8.90;98.00;;;;;;5073419;28;20506;-65
2024/02/12 09:21:03;;;;;;;1.70;1.40;;;9.00;98.00;;;;;;5073269;28;20947;-65
2024/02/12 09:23:30;;;;;;;2.20;1.60;;;9.00;98.00;;;;;;5073184;28;20451;-65
2024/02/12 09:25:57;;;;;;;2.17;1.60;;;8.90;98.00;;;;;;5073410;28;20535;-65
2024/02/12 09:28:26;;;;;;;2.60;1.83;;;8.90;98.00;;;;;;5073276;28;20464;-62
2024/02/12 09:30:54;;;;;;;2.07;1.63;;;8.90;98.00;;;;;;5073318;28;20819;-64
2024/02/12 09:33:22;;;;;;;2.40;1.50;;;8.80;98.00;;;;;;5073029;28;20452;-64
2024/02/12 09:35:49;;;;;;;1.90;1.60;;;8.90;98.00;;;;;;5072742;28;20464;-64
2024/02/12 09:38:16;;;;;;;2.20;1.60;;;8.90;98.00;;;;;;5072705;28;20453;-64
2024/02/12 09:40:44;;;;;;;2.37;1.67;;;9.00;98.00;;;;;;5072597;28;20448;-64
2024/02/12 09:43:16;;;;;;;3.67;1.67;;;9.00;98.00;;;;;;5073058;28;20478;-64
2024/02/12 09:45:44;;;;;;;2.03;1.80;;;9.10;98.00;;;;;;5072498;28;20446;-64
2024/02/12 09:48:14;;;;;;;2.47;1.70;;;9.10;98.00;;;;;;5072580;28;20538;-64
2024/02/12 09:50:45;;;;;;;3.13;1.70;;;9.10;98.00;;;;;;5071989;28;20526;-64
2024/02/12 09:53:15;;;;;;;1.60;1.40;;;9.30;98.00;;;;;;5072702;28;20453;-64
2024/02/12 09:55:45;;;;;;;2.30;1.60;;;9.40;98.00;;;;;;5072441;28;20453;-64
2024/02/12 09:58:15;;;;;;;2.63;1.70;;;9.40;98.00;;;;;;5072364;28;20898;-64
2024/02/12 10:00:43;;;;;;;2.10;1.70;;;9.50;98.00;;;;;;5060567;28;20489;-64
2024/02/12 10:03:12;;;;;;;1.80;1.53;;;9.50;98.00;;;;;;5034577;28;20541;-64
2024/02/12 10:05:43;;;;;;;2.80;1.90;;;9.60;98.00;;;;;;5052100;28;20496;-64
2024/02/12 10:08:20;;;;;;;2.80;1.90;;;9.80;98.00;;;;;;5052313;28;20947;-64
2024/02/12 10:10:48;;;;;;;3.23;1.90;;;10.00;98.00;;;;;;5052133;28;20457;-64
2024/02/12 10:13:16;;;;;;;2.93;1.77;;;9.90;98.00;;;;;;5052076;28;20510;-64
2024/02/12 10:15:44;;;;;;;2.10;1.60;;;10.00;98.00;;;;;;5052007;28;20532;-64
2024/02/12 10:18:14;;;;;;;2.73;1.90;;;10.00;98.00;;;;;;5048737;28;20462;-64
2024/02/12 10:20:53;;;;;;;3.20;1.90;;;9.90;98.00;;;;;;5063499;28;20574;-64
2024/02/12 10:23:20;;;;;;;2.53;1.80;;;9.80;98.00;;;;;;5059947;28;20450;-64
2024/02/12 10:25:50;;;;;;;2.00;1.63;;;9.80;98.00;;;;;;5053869;28;20457;-64
2024/02/12 10:28:19;;;;;;;2.37;1.73;;;9.80;98.00;;;;;;5071902;28;20507;-64
2024/02/12 10:30:47;;;;;;;2.13;1.77;;;9.80;98.00;;;;;;5053761;28;20958;-64
2024/02/12 10:33:15;;;;;;;1.97;1.60;;;9.90;98.00;;;;;;5071926;28;20548;-64
2024/02/12 10:35:46;;;;;;;2.30;1.70;;;10.00;98.00;;;;;;5071508;28;20844;-64
2024/02/12 10:38:14;;;;;;;2.43;1.83;;;10.00;98.00;;;;;;5031802;28;20458;-64
2024/02/12 10:41:04;;;;;;;2.30;1.90;;;10.00;98.00;;;;;;5052317;28;20489;-64
2024/02/12 10:43:33;;;;;;;2.63;1.90;;;9.80;98.00;;;;;;5071775;28;20905;-64
2024/02/12 10:46:01;;;;;;;3.03;1.73;;;9.80;98.00;;;;;;5070711;28;20808;-64
2024/02/12 10:48:30;;;;;;;2.70;1.80;;;9.80;98.00;;;;;;5071438;28;20798;-64
2024/02/12 10:51:00;;;;;;;1.80;1.70;;;10.00;98.00;;;;;;5062672;28;20945;-62
2024/02/12 10:53:30;;;;;;;3.00;1.80;;;10.00;98.00;;;;;;5061421;28;20469;-62
2024/02/12 10:55:57;;;;;;;2.33;1.60;;;10.10;98.00;;;;;;5052229;28;20469;-62
2024/02/12 10:58:26;;;;;;;2.70;1.90;;;10.30;98.00;;;;;;5051609;28;20840;-62
2024/02/12 11:00:55;;;;;;;3.00;1.80;;;10.40;98.00;;;;;;5053053;28;20577;-62
2024/02/12 11:03:32;;;;;;;4.80;2.40;;;10.60;98.00;;;;;;5051434;28;20475;-62
2024/02/12 11:06:02;;;;;;;2.30;1.80;;;10.60;98.00;;;;;;5051515;28;20457;-62
2024/02/12 11:08:29;;;;;;;2.70;2.00;;;10.70;98.00;;;;;;5051943;28;20908;-62
2024/02/12 11:10:59;;;;;;;2.77;2.00;;;10.80;98.00;;;;;;5065997;28;20441;-62
2024/02/12 11:13:35;;;;;;;3.30;1.90;;;10.90;98.00;;;;;;5062136;28;20503;-62
2024/02/12 11:16:05;;;;;;;2.47;1.90;;;11.00;98.00;;;;;;5071637;28;20472;-62
2024/02/12 11:18:37;;;;;;;7.67;2.37;;;11.00;98.00;;;;;;5054858;28;20850;-64
2024/02/12 11:21:08;;;;;;;5.60;2.27;;;11.00;98.00;;;;;;5063537;28;20511;-64
2024/02/12 11:23:40;;;;;;;3.03;2.20;;;11.10;98.00;;;;;;5070951;28;20486;-64
2024/02/12 11:26:09;;;;;;;2.53;1.90;;;11.20;98.00;;;;;;5071317;28;20460;-64
2024/02/12 11:28:38;;;;;;;2.53;1.77;;;11.20;98.00;;;;;;5071004;28;20459;-64
2024/02/12 11:31:10;;;;;;;2.80;2.10;;;11.00;98.00;;;;;;5053596;28;20457;-64
2024/02/12 11:33:40;;;;;;;3.70;2.30;;;11.00;98.00;;;;;;5054263;28;20452;-64
2024/02/12 11:36:13;;;;;;;3.37;2.20;;;11.00;98.00;;;;;;5073467;28;20946;-64
2024/02/12 11:38:49;;;;;;;2.83;2.00;;;11.00;98.00;;;;;;5074861;28;20451;-64
2024/02/12 11:41:19;;;;;;;3.90;2.30;;;11.10;98.00;;;;;;5075055;28;20480;-64
2024/02/12 11:43:48;;;;;;;2.67;1.90;;;11.20;98.00;;;;;;5074388;28;20462;-64
2024/02/12 11:46:17;;;;;;;3.40;2.10;;;11.50;98.00;;;;;;5074510;28;20473;-64
2024/02/12 11:48:44;;;;;;;2.60;2.00;;;11.50;98.00;;;;;;5074338;28;20534;-64
2024/02/12 11:51:19;;;;;;;2.30;1.90;;;11.50;98.00;;;;;;5074737;28;20456;-64
2024/02/12 11:53:46;;;;;;;3.10;1.97;;;11.60;98.00;;;;;;5074593;28;20455;-64
2024/02/12 11:56:14;;;;;;;3.40;2.10;;;11.60;98.00;;;;;;5057069;28;20934;-64
2024/02/12 11:58:41;;;;;;;5.80;2.20;;;11.50;98.00;;;;;;5074510;28;21000;-64
2024/02/12 12:01:08;;;;;;;11.43;2.30;;;11.40;98.00;;;;;;5052915;28;21010;-64
2024/02/12 12:03:37;;;;;;;4.73;2.17;;;11.40;98.00;;;;;;5054497;28;20453;-64
2024/02/12 12:06:05;;;;;;;4.47;2.03;;;11.30;98.00;;;;;;5054344;28;20450;-64
2024/02/12 12:08:36;;;;;;;4.73;2.50;;;11.10;98.00;;;;;;5053433;28;20452;-64
2024/02/12 12:11:06;;;;;;;3.60;2.13;;;11.00;98.00;;;;;;5053841;28;20457;-64
2024/02/12 12:13:33;;;;;;;3.33;2.13;;;10.80;98.00;;;;;;5054342;28;20785;-64
2024/02/12 12:16:03;;;;;;;2.90;2.00;;;10.80;98.00;;;;;;5054525;28;20482;-64
2024/02/12 12:18:31;;;;;;;3.10;2.13;;;10.80;98.00;;;;;;5037284;28;20450;-64
2024/02/12 12:20:58;;;;;;;4.80;2.43;;;10.80;98.00;;;;;;5054371;28;20481;-64
2024/02/12 12:23:26;;;;;;;6.37;2.47;;;10.80;98.00;;;;;;5053864;28;20452;-64
2024/02/12 12:25:56;;;;;;;5.87;2.37;;;10.80;98.00;;;;;;5052872;28;20459;-64
2024/02/12 12:28:24;;;;;;;3.70;2.20;;;10.80;98.00;;;;;;5054177;28;20560;-64
2024/02/12 12:30:54;;;;;;;3.40;2.23;;;10.90;98.00;;;;;;5053837;28;20492;-64
2024/02/12 12:33:23;;;;;;;3.87;2.20;;;10.90;98.00;;;;;;5053979;28;20507;-64
2024/02/12 12:35:51;;;;;;;3.23;2.30;;;11.00;98.00;;;;;;5053898;28;20458;-64
2024/02/12 12:38:18;;;;;;;4.00;2.27;;;10.90;98.00;;;;;;5053837;28;20459;-64
2024/02/12 12:40:45;;;;;;;5.43;2.70;;;10.90;98.00;;;;;;5053837;28;20514;-64
2024/02/12 12:43:16;;;;;;;3.73;2.40;;;10.90;98.00;;;;;;5053748;28;20473;-64
2024/02/12 12:45:43;;;;;;;2.90;2.10;;;11.00;98.00;;;;;;5053454;28;20453;-64
2024/02/12 12:48:12;;;;;;;2.93;2.00;;;11.00;98.00;;;;;;5052894;28;20781;-64
2024/02/12 12:50:39;;;;;;;4.67;2.10;;;11.10;98.00;;;;;;5053425;28;20462;-64
2024/02/12 12:53:06;;;;;;;3.27;2.30;;;11.10;98.00;;;;;;5054022;28;20457;-64
2024/02/12 12:55:35;;;;;;;3.90;2.03;;;11.00;98.00;;;;;;5053313;28;20501;-64
2024/02/12 12:58:03;;;;;;;3.70;2.30;;;10.90;98.00;;;;;;5052565;28;20453;-64
2024/02/12 13:00:35;;;;;;;4.87;2.27;;;10.90;98.00;;;;;;5053364;28;20488;-64
2024/02/12 13:03:03;;;;;;;5.47;2.20;;;11.00;98.00;;;;;;5053713;28;20448;-64
2024/02/12 13:05:30;;;;;;;2.30;1.90;;;10.90;98.00;;;;;;5053554;28;20456;-64
2024/02/12 13:07:59;;;;;;;4.60;2.10;;;10.70;98.00;;;;;;5053616;28;20686;-64
2024/02/12 13:10:26;;;;;;;3.00;2.00;;;10.60;98.00;;;;;;5053715;28;20490;-64
2024/02/12 13:12:54;;;;;;;4.43;2.00;;;10.70;98.00;;;;;;5053521;28;20867;-64
2024/02/12 13:15:21;;;;;;;3.57;1.93;;;10.90;98.00;;;;;;5053179;28;20454;-64
2024/02/12 13:17:58;;;;;;;2.40;1.90;;;11.00;98.00;;;;;;5053213;28;20947;-65